createdAt,value
2019-05-17T00:00:37.352Z,99064.05
2019-05-17T00:03:06.958Z,99058.41
2019-05-17T00:05:37.537Z,99059.12
2019-05-17T00:08:07.605Z,99059.26
2019-05-17T00:10:37.532Z,99054.94
2019-05-17T00:13:07.634Z,99058.91
2019-05-17T00:15:36.804Z,99055.41
2019-05-17T00:18:06.724Z,99053.45
2019-05-17T00:20:37.434Z,99051.33
2019-05-17T00:23:07.013Z,99049.39
2019-05-17T00:25:36.903Z,99057.22
2019-05-17T00:28:07.261Z,99056.48
2019-05-17T00:30:37.236Z,99057.57
2019-05-17T00:33:07.870Z,99057.34
2019-05-17T00:35:37.543Z,99070.23
2019-05-17T00:38:06.731Z,99069.05
2019-05-17T00:40:36.553Z,99067.35
2019-05-17T00:43:06.761Z,99071.19
2019-05-17T00:45:37.616Z,99070.67
2019-05-17T00:48:06.569Z,99070.44
2019-05-17T00:50:38.008Z,99067.08
2019-05-17T00:53:07.308Z,99070.67
2019-05-17T00:55:36.452Z,99065.52
2019-05-17T00:58:06.714Z,99073.61
2019-05-17T01:00:37.529Z,99074.66
2019-05-17T01:03:07.164Z,99075.50
2019-05-17T01:05:36.876Z,99078.97
2019-05-17T01:08:07.369Z,99078.86
2019-05-17T01:10:36.888Z,99075.14
2019-05-17T01:13:06.920Z,99075.13
2019-05-17T01:15:36.918Z,99069.63
2019-05-17T01:18:07.173Z,99067.07
2019-05-17T01:20:36.901Z,99063.06
2019-05-17T01:23:07.531Z,99064.41
2019-05-17T01:25:36.934Z,99061.52
2019-05-17T01:28:07.599Z,99053.69
2019-05-17T01:30:37.510Z,99055.23
2019-05-17T01:33:06.766Z,99052.36
2019-05-17T01:35:37.403Z,99051.16
2019-05-17T01:38:07.273Z,99049.71
2019-05-17T01:40:37.268Z,99047.78
2019-05-17T01:43:07.872Z,99044.66
2019-05-17T01:45:36.680Z,99045.63
2019-05-17T01:48:07.473Z,99047.55
2019-05-17T01:50:37.305Z,99043.58
2019-05-17T01:53:07.374Z,99041.26
2019-05-17T01:55:37.571Z,99039.01
2019-05-17T01:58:07.261Z,99034.86
2019-05-17T02:00:37.534Z,99034.28
2019-05-17T02:03:07.011Z,99042.03
2019-05-17T02:05:37.225Z,99042.31
2019-05-17T02:08:06.740Z,99052.39
2019-05-17T02:10:37.553Z,99045.20
2019-05-17T02:13:06.600Z,99039.91
2019-05-17T02:15:37.815Z,99045.68
2019-05-17T02:18:07.020Z,99047.13
2019-05-17T02:20:37.247Z,99046.17
2019-05-17T02:23:07.244Z,99039.52
2019-05-17T02:25:36.918Z,99040.14
2019-05-17T02:28:05.905Z,99029.80
2019-05-17T02:30:34.680Z,99030.31
2019-05-17T02:33:04.157Z,99019.45
2019-05-17T02:35:33.772Z,99028.38
2019-05-17T02:38:03.053Z,99021.42
2019-05-17T02:40:34.098Z,99024.63
2019-05-17T02:43:03.302Z,99020.44
2019-05-17T02:45:33.091Z,99022.63
2019-05-17T02:48:03.899Z,99023.42
2019-05-17T02:50:33.409Z,99022.59
2019-05-17T02:53:04.351Z,99020.33
2019-05-17T02:55:32.891Z,99012.88
2019-05-17T02:58:03.200Z,99017.20
2019-05-17T03:00:33.878Z,99015.27
2019-05-17T03:03:03.627Z,99016.84
2019-05-17T03:05:33.827Z,99013.98
2019-05-17T03:08:04.109Z,99020.93
2019-05-17T03:10:33.648Z,99009.98
2019-05-17T03:13:03.999Z,99012.53
2019-05-17T03:15:32.961Z,99018.91
2019-05-17T03:18:03.903Z,99028.77
2019-05-17T03:20:32.694Z,99026.23
2019-05-17T03:23:03.697Z,99019.75
2019-05-17T03:25:33.481Z,99025.28
2019-05-17T03:28:03.192Z,99027.08
2019-05-17T03:30:36.913Z,99036.11
2019-05-17T03:33:06.959Z,99027.09
2019-05-17T03:35:37.591Z,99030.83
2019-05-17T03:38:04.596Z,99039.50
2019-05-17T03:41:01.346Z,99041.26
2019-05-17T03:43:03.732Z,99050.30
2019-05-17T03:45:34.079Z,99052.12
2019-05-17T03:48:04.911Z,99052.97
2019-05-17T03:50:33.911Z,99053.30
2019-05-17T03:53:02.789Z,99054.05
2019-05-17T03:55:33.334Z,99055.01
2019-05-17T03:58:03.237Z,99054.63
2019-05-17T04:00:35.412Z,99052.12
2019-05-17T04:03:03.226Z,99049.84
2019-05-17T04:05:33.491Z,99046.70
2019-05-17T04:08:03.442Z,99053.45
2019-05-17T04:10:33.551Z,99056.47
2019-05-17T04:13:04.239Z,99056.11
2019-05-17T04:15:33.335Z,99053.70
2019-05-17T04:18:04.168Z,99063.90
2019-05-17T04:20:33.505Z,99070.17
2019-05-17T04:23:03.887Z,99066.44
2019-05-17T04:25:33.701Z,99065.50
2019-05-17T04:28:03.241Z,99063.44
2019-05-17T04:30:32.970Z,99062.38
2019-05-17T04:33:03.357Z,99059.86
2019-05-17T04:35:32.907Z,99061.98
2019-05-17T04:38:04.161Z,99065.63
2019-05-17T04:40:33.928Z,99064.05
2019-05-17T04:43:03.231Z,99061.78
2019-05-17T04:45:33.652Z,99061.98
2019-05-17T04:48:04.042Z,99070.45
2019-05-17T04:50:33.580Z,99077.06
2019-05-17T04:53:02.999Z,99074.66
2019-05-17T04:55:34.200Z,99075.73
2019-05-17T04:58:04.089Z,99076.34
2019-05-17T05:00:34.090Z,99083.19
2019-05-17T05:03:04.021Z,99079.03
2019-05-17T05:05:33.356Z,99075.80
2019-05-17T05:08:03.061Z,99075.55
2019-05-17T05:10:33.799Z,99076.86
2019-05-17T05:13:03.416Z,99074.18
2019-05-17T05:15:43.367Z,99082.04
2019-05-17T05:18:13.268Z,99083.73
2019-05-17T05:20:43.444Z,99076.03
2019-05-17T05:23:12.995Z,99083.02
2019-05-17T05:25:43.111Z,99084.45
2019-05-17T05:28:12.158Z,99085.87
2019-05-17T05:30:42.153Z,99090.33
2019-05-17T05:33:12.798Z,99080.53
2019-05-17T05:35:42.423Z,99072.11
2019-05-17T05:38:12.967Z,99083.28
2019-05-17T05:40:42.476Z,99079.11
2019-05-17T05:43:11.927Z,99086.31
2019-05-17T05:45:41.717Z,99085.33
2019-05-17T05:48:12.774Z,99086.89
2019-05-17T05:50:43.138Z,99081.81
2019-05-17T05:53:12.925Z,99080.25
2019-05-17T05:55:42.884Z,99085.41
2019-05-17T05:58:12.296Z,99096.11
2019-05-17T06:00:42.759Z,99097.03
2019-05-17T06:03:12.031Z,99099.30
2019-05-17T06:05:42.322Z,99095.98
2019-05-17T06:08:12.198Z,99103.33
2019-05-17T06:10:42.659Z,99101.50
2019-05-17T06:13:13.219Z,99094.47
2019-05-17T06:15:42.924Z,99085.20
2019-05-17T06:18:12.296Z,99085.66
2019-05-17T06:20:41.775Z,99084.63
2019-05-17T06:23:12.337Z,99080.64
2019-05-17T06:25:43.487Z,99084.92
2019-05-17T06:28:11.946Z,99085.84
2019-05-17T06:30:43.073Z,99083.01
2019-05-17T06:33:11.964Z,99090.06
2019-05-17T06:35:42.460Z,99076.48
2019-05-17T06:38:12.076Z,99080.46
2019-05-17T06:40:42.076Z,99079.75
2019-05-17T06:43:13.051Z,99080.45
2019-05-17T06:45:42.080Z,99088.19
2019-05-17T06:48:11.796Z,99085.35
2019-05-17T06:50:42.911Z,99094.78
2019-05-17T06:53:12.301Z,99089.19
2019-05-17T06:55:42.557Z,99092.65
2019-05-17T06:58:11.868Z,99095.36
2019-05-17T07:00:40.637Z,99087.92
2019-05-17T07:03:09.650Z,99087.92
2019-05-17T07:05:40.936Z,99085.90
2019-05-17T07:08:10.782Z,99086.52
2019-05-17T07:10:40.072Z,99080.51
2019-05-17T07:13:10.638Z,99083.55
2019-05-17T07:15:47.359Z,99082.28
2019-05-17T07:18:10.423Z,99084.15
2019-05-17T07:20:39.695Z,99083.88
2019-05-17T07:23:10.810Z,99081.89
2019-05-17T07:25:39.749Z,99081.86
2019-05-17T07:28:10.165Z,99074.18
2019-05-17T07:30:39.922Z,99080.21
2019-05-17T07:33:10.210Z,99082.88
2019-05-17T07:35:39.647Z,99084.35
2019-05-17T07:38:10.539Z,99085.53
2019-05-17T07:40:39.848Z,99094.31
2019-05-17T07:43:14.397Z,99086.80
2019-05-17T07:45:40.669Z,99090.05
2019-05-17T07:48:09.816Z,99085.63
2019-05-17T07:50:39.928Z,99088.14
2019-05-17T07:53:10.279Z,99089.05
2019-05-17T07:55:39.876Z,99091.02
2019-05-17T07:58:09.957Z,99090.47
2019-05-17T08:00:40.077Z,99089.03
2019-05-17T08:03:12.616Z,99087.58
2019-05-17T08:05:40.293Z,99091.83
2019-05-17T08:08:09.770Z,99082.23
2019-05-17T08:10:40.912Z,99080.27
2019-05-17T08:13:25.216Z,99081.48
2019-05-17T08:15:39.900Z,99089.41
2019-05-17T08:18:10.813Z,99087.39
2019-05-17T08:20:40.111Z,99088.92
2019-05-17T08:23:10.508Z,99092.92
2019-05-17T08:25:52.042Z,99098.25
2019-05-17T08:28:10.933Z,99102.13
2019-05-17T08:30:40.933Z,99092.19
2019-05-17T08:33:12.707Z,99093.08
2019-05-17T08:35:46.541Z,99085.19
2019-05-17T08:38:15.082Z,99083.12
2019-05-17T08:40:43.675Z,99082.53
2019-05-17T08:43:15.762Z,99074.08
2019-05-17T08:45:44.444Z,99070.86
2019-05-17T08:48:15.052Z,99076.91
2019-05-17T08:50:43.695Z,99073.98
2019-05-17T08:53:15.099Z,99078.55
2019-05-17T08:55:43.678Z,99072.42
2019-05-17T08:58:12.312Z,99071.05
2019-05-17T09:00:41.060Z,99071.08
2019-05-17T09:03:10.675Z,99076.67
2019-05-17T09:05:41.775Z,99076.03
2019-05-17T09:08:10.657Z,99071.56
2019-05-17T09:10:40.719Z,99069.47
2019-05-17T09:13:12.397Z,99064.83
2019-05-17T09:15:40.179Z,99056.35
2019-05-17T09:18:09.892Z,99058.41
2019-05-17T09:20:40.508Z,99058.53
2019-05-17T09:23:09.675Z,99062.28
2019-05-17T09:25:39.841Z,99066.52
2019-05-17T09:28:10.119Z,99067.36
2019-05-17T09:30:40.434Z,99061.30
2019-05-17T09:33:11.377Z,99060.22
2019-05-17T09:35:40.838Z,99055.14
2019-05-17T09:38:10.259Z,99059.38
2019-05-17T09:40:40.187Z,99060.59
2019-05-17T09:43:10.090Z,99059.42
2019-05-17T09:45:40.338Z,99063.23
2019-05-17T09:48:10.317Z,99069.27
2019-05-17T09:50:39.965Z,99062.83
2019-05-17T09:53:10.689Z,99063.02
2019-05-17T09:55:39.720Z,99073.19
2019-05-17T09:58:09.804Z,99074.02
2019-05-17T10:00:38.777Z,99070.67
2019-05-17T10:03:09.687Z,99066.03
2019-05-17T10:05:40.277Z,99056.20
2019-05-17T10:08:10.601Z,99052.50
2019-05-17T10:10:40.258Z,99053.87
2019-05-17T10:13:09.835Z,99049.27
2019-05-17T10:15:40.919Z,99048.00
2019-05-17T10:18:11.140Z,99048.73
2019-05-17T10:20:40.120Z,99065.48
2019-05-17T10:23:10.452Z,99068.20
2019-05-17T10:25:40.048Z,99062.30
2019-05-17T10:28:10.130Z,99052.66
2019-05-17T10:30:39.935Z,99054.56
2019-05-17T10:33:09.806Z,99044.17
2019-05-17T10:35:40.671Z,99033.66
2019-05-17T10:38:10.348Z,99024.96
2019-05-17T10:40:40.860Z,99019.85
2019-05-17T10:43:10.184Z,99018.61
2019-05-17T10:45:40.058Z,99021.80
2019-05-17T10:48:10.272Z,99016.50
2019-05-17T10:50:40.689Z,99020.39
2019-05-17T10:53:10.223Z,99025.66
2019-05-17T10:55:39.697Z,99022.12
2019-05-17T10:58:09.994Z,99021.12
2019-05-17T11:00:41.413Z,99024.09
2019-05-17T11:03:10.060Z,99023.05
2019-05-17T11:05:40.158Z,99016.30
2019-05-17T11:08:10.623Z,99021.42
2019-05-17T11:10:39.754Z,99015.59
2019-05-17T11:13:08.398Z,99020.46
2019-05-17T11:15:36.953Z,99013.50
2019-05-17T11:18:05.758Z,99007.78
2019-05-17T11:20:34.346Z,99004.75
2019-05-17T11:23:02.935Z,99000.09
2019-05-17T11:25:31.619Z,98997.13
2019-05-17T11:28:00.211Z,98998.12
2019-05-17T11:30:28.801Z,98994.55
2019-05-17T11:32:57.589Z,98989.75
2019-05-17T11:35:26.202Z,98994.37
2019-05-17T11:37:54.688Z,99001.84
2019-05-17T11:40:23.483Z,99003.24
2019-05-17T11:42:51.958Z,98998.27
2019-05-17T11:45:28.198Z,98985.98
2019-05-17T11:47:51.137Z,98980.53
2019-05-17T11:50:20.250Z,98991.09
2019-05-17T11:52:48.932Z,98991.09
2019-05-17T11:55:17.726Z,99000.32
2019-05-17T11:57:46.317Z,98993.47
2019-05-17T12:00:16.487Z,98990.97
2019-05-17T12:02:44.978Z,98992.00
2019-05-17T12:05:13.539Z,99001.31
2019-05-17T12:07:42.159Z,98996.81
2019-05-17T12:10:11.058Z,98994.32
2019-05-17T12:12:39.753Z,98989.32
2019-05-17T12:15:08.741Z,98992.17
2019-05-17T12:17:37.528Z,98984.33
2019-05-17T12:20:06.659Z,98979.19
2019-05-17T12:22:35.067Z,98984.15
2019-05-17T12:25:04.012Z,98988.83
2019-05-17T12:27:32.606Z,98985.94
2019-05-17T12:30:01.299Z,98984.95
2019-05-17T12:32:29.929Z,98970.28
2019-05-17T12:34:58.544Z,98963.97
2019-05-17T12:37:27.140Z,98966.48
2019-05-17T12:39:55.733Z,98958.24
2019-05-17T12:42:24.516Z,98971.80
2019-05-17T12:44:52.989Z,98964.75
2019-05-17T12:47:21.463Z,98957.56
2019-05-17T12:49:50.070Z,98962.08
2019-05-17T12:52:18.564Z,98955.03
2019-05-17T12:54:47.061Z,98957.11
2019-05-17T12:57:15.744Z,98942.25
2019-05-17T12:59:44.322Z,98958.33
2019-05-17T13:02:12.972Z,98953.12
2019-05-17T13:04:41.536Z,98955.25
2019-05-17T13:07:10.065Z,98953.94
2019-05-17T13:09:38.547Z,98949.93
2019-05-17T13:12:07.140Z,98947.95
2019-05-17T13:14:35.836Z,98944.92
2019-05-17T13:17:04.529Z,98941.11
2019-05-17T13:19:33.094Z,98940.77
2019-05-17T13:22:01.823Z,98938.75
2019-05-17T13:24:30.404Z,98933.40
2019-05-17T13:26:59.083Z,98927.03
2019-05-17T13:29:27.697Z,98925.03
2019-05-17T13:31:56.289Z,98932.23
2019-05-17T13:34:24.769Z,98932.92
2019-05-17T13:36:53.373Z,98924.53
2019-05-17T13:39:21.880Z,98912.84
2019-05-17T13:41:50.573Z,98916.50
2019-05-17T13:44:19.177Z,98915.17
2019-05-17T13:46:48.169Z,98908.64
2019-05-17T13:49:16.870Z,98908.62
2019-05-17T13:51:45.542Z,98908.84
2019-05-17T13:54:14.163Z,98907.83
2019-05-17T13:56:42.774Z,98901.93
2019-05-17T13:59:11.378Z,98905.62
2019-05-17T14:01:40.032Z,98911.31
2019-05-17T14:04:08.669Z,98903.11
2019-05-17T14:06:37.155Z,98904.28
2019-05-17T14:09:06.139Z,98898.44
2019-05-17T14:11:34.646Z,98897.94
2019-05-17T14:14:03.235Z,98900.97
2019-05-17T14:16:34.385Z,98901.81
2019-05-17T14:19:02.094Z,98897.94
2019-05-17T14:21:30.726Z,98906.80
2019-05-17T14:23:59.357Z,98907.83
2019-05-17T14:26:27.940Z,98904.46
2019-05-17T14:28:56.560Z,98911.82
2019-05-17T14:31:25.148Z,98912.48
2019-05-17T14:33:53.879Z,98913.81
2019-05-17T14:36:22.639Z,98916.52
2019-05-17T14:38:51.355Z,98920.36
2019-05-17T14:41:19.896Z,98921.20
2019-05-17T14:43:48.518Z,98917.31
2019-05-17T14:46:17.104Z,98920.66
2019-05-17T14:48:45.692Z,98918.98
2019-05-17T14:51:14.304Z,98912.30
2019-05-17T14:53:42.801Z,98907.63
2019-05-17T14:56:11.403Z,98905.89
2019-05-17T14:58:39.806Z,98905.11
2019-05-17T15:01:08.292Z,98905.27
2019-05-17T15:03:36.970Z,98905.13
2019-05-17T15:06:05.573Z,98903.45
2019-05-17T15:08:34.153Z,98901.11
2019-05-17T15:11:02.566Z,98896.25
2019-05-17T15:13:31.166Z,98889.91
2019-05-17T15:15:59.730Z,98899.11
2019-05-17T15:18:28.427Z,98896.94
2019-05-17T15:20:57.120Z,98892.42
2019-05-17T15:23:25.845Z,98879.02
2019-05-17T15:25:54.458Z,98884.71
2019-05-17T15:28:22.963Z,98880.69
2019-05-17T15:30:51.557Z,98895.41
2019-05-17T15:33:20.145Z,98894.58
2019-05-17T15:35:48.910Z,98895.09
2019-05-17T15:38:17.492Z,98899.27
2019-05-17T15:40:46.397Z,98901.11
2019-05-17T15:43:14.878Z,98906.81
2019-05-17T15:45:43.473Z,98901.27
2019-05-17T15:48:12.308Z,98904.09
2019-05-17T15:50:40.784Z,98900.71
2019-05-17T15:53:09.447Z,98899.52
2019-05-17T15:55:38.213Z,98899.27
2019-05-17T15:58:06.888Z,98900.39
2019-05-17T16:00:35.295Z,98901.23
2019-05-17T16:03:03.791Z,98899.02
2019-05-17T16:05:32.287Z,98897.69
2019-05-17T16:08:00.977Z,98900.05
2019-05-17T16:10:29.682Z,98898.04
2019-05-17T16:13:03.229Z,98893.03
2019-05-17T16:15:28.789Z,98901.70
2019-05-17T16:17:57.381Z,98897.69
2019-05-17T16:20:25.965Z,98898.53
2019-05-17T16:22:54.656Z,98904.73
2019-05-17T16:25:23.458Z,98899.98
2019-05-17T16:27:52.050Z,98902.25
2019-05-17T16:30:20.645Z,98903.14
2019-05-17T16:32:49.228Z,98912.64
2019-05-17T16:35:17.723Z,98907.61
2019-05-17T16:37:46.218Z,98912.15
2019-05-17T16:40:14.997Z,98908.94
2019-05-17T16:42:43.583Z,98917.67
2019-05-17T16:45:14.182Z,98916.83
2019-05-17T16:47:42.681Z,98913.09
2019-05-17T16:50:11.676Z,98916.11
2019-05-17T16:52:40.175Z,98920.31
2019-05-17T16:55:09.182Z,98915.98
2019-05-17T16:57:37.784Z,98927.30
2019-05-17T17:00:30.480Z,98930.16
2019-05-17T17:02:59.291Z,98929.30
2019-05-17T17:05:27.817Z,98933.31
2019-05-17T17:07:56.491Z,98933.61
2019-05-17T17:10:25.290Z,98939.98
2019-05-17T17:12:53.876Z,98942.31
2019-05-17T17:15:22.677Z,98944.36
2019-05-17T17:17:51.420Z,98946.92
2019-05-17T17:20:20.207Z,98946.98
2019-05-17T17:22:49.324Z,98951.67
2019-05-17T17:25:18.126Z,98949.94
2019-05-17T17:27:46.833Z,98962.96
2019-05-17T17:30:16.513Z,98963.43
2019-05-17T17:32:45.198Z,98968.68
2019-05-17T17:35:13.984Z,98969.64
2019-05-17T17:37:42.592Z,98975.16
2019-05-17T17:40:11.530Z,98980.69
2019-05-17T17:42:40.244Z,98978.34
2019-05-17T17:45:15.930Z,98983.38
2019-05-17T17:47:44.489Z,98980.41
2019-05-17T17:50:14.311Z,98982.42
2019-05-17T17:52:45.428Z,98984.53
2019-05-17T17:55:14.134Z,98983.19
2019-05-17T17:57:42.624Z,98984.77
2019-05-17T18:00:12.261Z,98990.60
2019-05-17T18:02:40.886Z,98992.32
2019-05-17T18:05:09.589Z,98989.20
2019-05-17T18:07:38.085Z,98988.71
2019-05-17T18:10:07.100Z,98995.09
2019-05-17T18:12:35.811Z,99004.42
2019-05-17T18:15:06.623Z,99008.70
2019-05-17T18:17:39.289Z,99011.61
2019-05-17T18:20:05.999Z,99013.25
2019-05-17T18:22:34.604Z,99018.09
2019-05-17T18:25:04.746Z,99014.20
2019-05-17T18:27:33.331Z,99023.41
2019-05-17T18:30:02.245Z,99028.29
2019-05-17T18:32:30.839Z,99025.53
2019-05-17T18:34:59.642Z,99031.25
2019-05-17T18:37:28.354Z,99027.09
2019-05-17T18:39:56.827Z,99025.53
2019-05-17T18:42:25.294Z,99030.59
2019-05-17T18:44:54.000Z,99027.86
2019-05-17T18:47:22.708Z,99032.48
2019-05-17T18:49:51.317Z,99029.91
2019-05-17T18:52:20.008Z,99020.77
2019-05-17T18:54:49.176Z,99030.80
2019-05-17T18:57:17.765Z,99031.04
2019-05-17T18:59:46.370Z,99025.68
2019-05-17T19:02:14.954Z,99020.02
2019-05-17T19:04:43.569Z,99024.87
2019-05-17T19:07:12.062Z,99024.13
2019-05-17T19:09:40.741Z,99023.33
2019-05-17T19:12:09.442Z,99025.92
2019-05-17T19:14:42.893Z,99022.83
2019-05-17T19:17:08.448Z,99030.30
2019-05-17T19:19:36.916Z,99028.41
2019-05-17T19:22:05.618Z,99028.70
2019-05-17T19:24:34.104Z,99034.14
2019-05-17T19:27:03.174Z,99024.80
2019-05-17T19:29:31.670Z,99027.45
2019-05-17T19:32:00.136Z,99028.81
2019-05-17T19:34:28.538Z,99026.12
2019-05-17T19:36:57.025Z,99030.95
2019-05-17T19:39:25.504Z,99029.23
2019-05-17T19:41:54.093Z,99034.98
2019-05-17T19:44:22.729Z,99036.74
2019-05-17T19:46:51.240Z,99039.50
2019-05-17T19:49:19.938Z,99041.11
2019-05-17T19:51:48.651Z,99038.28
2019-05-17T19:54:17.361Z,99034.45
2019-05-17T19:56:45.847Z,99041.35
2019-05-17T19:59:14.323Z,99040.34
2019-05-17T20:01:42.707Z,99035.97
2019-05-17T20:04:11.393Z,99029.44
2019-05-17T20:06:39.789Z,99019.78
2019-05-17T20:09:08.372Z,99018.93
2019-05-17T20:11:36.991Z,99016.95
2019-05-17T20:14:05.473Z,99023.69
2019-05-17T20:16:34.074Z,99016.67
2019-05-17T20:19:02.660Z,99017.80
2019-05-17T20:21:31.362Z,99009.28
2019-05-17T20:24:00.255Z,99014.38
2019-05-17T20:26:28.945Z,99020.03
2019-05-17T20:28:57.451Z,99021.05
2019-05-17T20:31:25.929Z,99021.12
2019-05-17T20:33:54.532Z,99022.33
2019-05-17T20:36:23.033Z,99029.28
2019-05-17T20:38:51.632Z,99028.16
2019-05-17T20:41:20.177Z,99027.31
2019-05-17T20:43:48.834Z,99023.68
2019-05-17T20:46:17.424Z,99022.16
2019-05-17T20:48:46.130Z,99020.94
2019-05-17T20:51:14.824Z,99026.05
2019-05-17T20:53:43.208Z,99027.39
2019-05-17T20:56:11.800Z,99023.82
2019-05-17T20:58:40.378Z,99023.55
2019-05-17T21:01:09.060Z,99026.41
2019-05-17T21:03:37.649Z,99027.00
2019-05-17T21:06:06.241Z,99027.95
2019-05-17T21:08:45.527Z,99031.07
2019-05-17T21:11:05.247Z,99031.00
2019-05-17T21:13:33.931Z,99031.00
2019-05-17T21:16:02.521Z,99029.50
2019-05-17T21:18:31.414Z,99038.37
2019-05-17T21:21:00.841Z,99038.66
2019-05-17T21:23:29.221Z,99039.63
2019-05-17T21:25:59.395Z,99033.68
2019-05-17T21:28:27.995Z,99032.91
2019-05-17T21:30:56.546Z,99036.27
2019-05-17T21:33:25.213Z,99031.58
2019-05-17T21:35:53.796Z,99035.56
2019-05-17T21:38:22.316Z,99037.12
2019-05-17T21:40:50.913Z,99043.43
2019-05-17T21:43:19.522Z,99037.19
2019-05-17T21:46:02.319Z,99048.67
2019-05-17T21:48:18.598Z,99044.69
2019-05-17T21:50:47.018Z,99040.66
2019-05-17T21:53:15.509Z,99044.42
2019-05-17T21:55:44.101Z,99041.13
2019-05-17T21:58:12.589Z,99035.63
2019-05-17T22:01:25.710Z,99032.02
2019-05-17T22:03:54.197Z,99036.41
2019-05-17T22:06:22.882Z,99031.84
2019-05-17T22:08:51.472Z,99024.95
2019-05-17T22:11:20.133Z,99022.56
2019-05-17T22:13:48.627Z,99019.51
2019-05-17T22:16:19.940Z,99015.19
2019-05-17T22:18:47.614Z,99013.83
2019-05-17T22:21:16.005Z,99016.63
2019-05-17T22:23:44.501Z,99010.76
2019-05-17T22:26:13.092Z,99009.17
2019-05-17T22:28:41.583Z,99008.09
2019-05-17T22:31:10.218Z,99005.25
2019-05-17T22:33:38.711Z,99000.05
2019-05-17T22:36:07.540Z,98998.14
2019-05-17T22:38:36.054Z,98999.20
2019-05-17T22:41:04.700Z,98997.99
2019-05-17T22:43:33.511Z,99000.39
2019-05-17T22:46:02.250Z,98999.91
2019-05-17T22:48:31.046Z,99004.97
2019-05-17T22:50:59.723Z,99003.97
2019-05-17T22:53:28.408Z,99007.52
2019-05-17T22:55:56.992Z,99010.20
2019-05-17T22:58:25.729Z,99013.75
2019-05-17T23:00:54.171Z,99010.24
2019-05-17T23:03:22.810Z,99014.41
2019-05-17T23:05:51.439Z,99011.62
2019-05-17T23:08:19.901Z,99007.09
2019-05-17T23:10:48.380Z,99005.91
2019-05-17T23:13:16.762Z,99005.91
2019-05-17T23:16:01.160Z,99006.58
2019-05-17T23:18:31.034Z,99001.83
2019-05-17T23:20:59.998Z,99007.09
2019-05-17T23:23:28.598Z,98997.38
2019-05-17T23:25:57.432Z,99000.02
2019-05-17T23:28:25.834Z,98991.42
2019-05-17T23:30:54.419Z,98984.53
2019-05-17T23:33:22.986Z,98995.60
2019-05-17T23:35:51.363Z,98994.30
2019-05-17T23:38:19.923Z,99003.97
2019-05-17T23:40:48.621Z,98994.45
2019-05-17T23:43:17.024Z,98999.05
2019-05-17T23:45:45.644Z,99005.16
2019-05-17T23:48:14.080Z,99008.28
2019-05-17T23:50:42.484Z,98999.64
2019-05-17T23:53:10.864Z,99001.02
2019-05-17T23:55:39.349Z,99002.00
2019-05-17T23:58:07.731Z,98997.46
